createdAt,value
2018-02-04T00:01:07.215Z,26.60
2018-02-04T00:03:34.023Z,22.75
2018-02-04T00:06:00.020Z,26.83
2018-02-04T00:08:26.171Z,27.77
2018-02-04T00:10:52.319Z,26.92
2018-02-04T00:13:18.353Z,26.17
2018-02-04T00:15:45.233Z,25.55
2018-02-04T00:18:11.210Z,27.60
2018-02-04T00:20:37.198Z,24.67
2018-02-04T00:23:03.149Z,32.23
2018-02-04T00:25:29.138Z,23.40
2018-02-04T00:27:55.219Z,24.90
2018-02-04T00:30:21.923Z,25.25
2018-02-04T00:32:47.917Z,24.45
2018-02-04T00:35:14.099Z,26.90
2018-02-04T00:37:40.807Z,25.00
2018-02-04T00:40:06.770Z,26.87
2018-02-04T00:42:32.851Z,25.33
2018-02-04T00:44:58.760Z,24.95
2018-02-04T00:47:25.290Z,22.57
2018-02-04T00:49:51.494Z,26.85
2018-02-04T00:52:17.479Z,22.48
2018-02-04T00:54:43.506Z,25.17
2018-02-04T00:57:10.240Z,28.05
2018-02-04T00:59:36.979Z,25.10
2018-02-04T01:02:03.021Z,25.85
2018-02-04T01:04:28.990Z,26.87
2018-02-04T01:06:54.946Z,28.13
2018-02-04T01:09:20.898Z,35.20
2018-02-04T01:11:46.852Z,27.37
2018-02-04T01:14:12.824Z,29.17
2018-02-04T01:16:39.989Z,28.27
2018-02-04T01:19:05.948Z,26.23
2018-02-04T01:21:32.922Z,29.17
2018-02-04T01:23:59.706Z,28.00
2018-02-04T01:26:25.698Z,24.63
2018-02-04T01:28:51.691Z,24.90
2018-02-04T01:31:17.712Z,27.53
2018-02-04T01:33:43.660Z,23.87
2018-02-04T01:36:09.871Z,22.07
2018-02-04T01:38:35.929Z,24.12
2018-02-04T01:41:02.025Z,28.98
2018-02-04T01:43:27.973Z,23.62
2018-02-04T01:45:54.971Z,25.80
2018-02-04T01:48:21.810Z,29.98
2018-02-04T01:50:47.936Z,28.42
2018-02-04T01:53:13.968Z,26.85
2018-02-04T01:55:39.981Z,29.00
2018-02-04T01:58:05.922Z,23.90
2018-02-04T02:00:31.871Z,26.03
2018-02-04T02:02:57.868Z,23.40
2018-02-04T02:05:23.897Z,27.30
2018-02-04T02:07:50.717Z,29.08
2018-02-04T02:10:16.666Z,22.65
2018-02-04T02:12:42.606Z,25.30
2018-02-04T02:15:08.593Z,24.67
2018-02-04T02:17:34.571Z,25.97
2018-02-04T02:20:00.531Z,27.27
2018-02-04T02:22:26.543Z,26.90
2018-02-04T02:24:52.563Z,28.10
2018-02-04T02:27:18.535Z,25.98
2018-02-04T02:29:44.483Z,25.33
2018-02-04T02:32:10.458Z,27.23
2018-02-04T02:34:36.484Z,27.40
2018-02-04T02:37:02.476Z,23.73
2018-02-04T02:39:28.484Z,24.57
2018-02-04T02:41:54.441Z,32.67
2018-02-04T02:44:20.391Z,24.77
2018-02-04T02:46:46.366Z,28.37
2018-02-04T02:49:12.338Z,29.17
2018-02-04T02:51:38.525Z,24.23
2018-02-04T02:54:04.508Z,25.77
2018-02-04T02:56:30.482Z,23.90
2018-02-04T02:58:56.459Z,26.50
2018-02-04T03:01:22.503Z,22.53
2018-02-04T03:03:48.643Z,22.70
2018-02-04T03:06:14.601Z,25.00
2018-02-04T03:08:40.569Z,25.20
2018-02-04T03:11:06.498Z,22.17
2018-02-04T03:13:32.474Z,27.50
2018-02-04T03:15:58.427Z,26.77
2018-02-04T03:18:24.411Z,27.67
2018-02-04T03:20:50.398Z,29.13
2018-02-04T03:23:17.101Z,27.97
2018-02-04T03:25:43.050Z,22.55
2018-02-04T03:28:08.994Z,25.43
2018-02-04T03:30:34.955Z,28.63
2018-02-04T03:33:00.941Z,34.20
2018-02-04T03:35:26.942Z,21.77
2018-02-04T03:37:53.754Z,29.95
2018-02-04T03:40:20.004Z,25.92
2018-02-04T03:42:46.802Z,25.08
2018-02-04T03:45:12.795Z,27.05
2018-02-04T03:47:38.817Z,30.40
2018-02-04T03:50:04.753Z,24.90
2018-02-04T03:52:30.687Z,25.70
2018-02-04T03:54:56.679Z,26.90
2018-02-04T03:57:22.669Z,25.70
2018-02-04T03:59:49.434Z,24.43
2018-02-04T04:02:15.445Z,24.58
2018-02-04T04:04:41.386Z,30.23
2018-02-04T04:07:08.192Z,26.00
2018-02-04T04:09:34.905Z,26.23
2018-02-04T04:12:01.150Z,23.62
2018-02-04T04:14:27.163Z,23.52
2018-02-04T04:16:53.195Z,27.58
2018-02-04T04:19:20.828Z,26.10
2018-02-04T04:21:46.841Z,25.37
2018-02-04T04:24:13.892Z,24.17
2018-02-04T04:26:39.924Z,28.45
2018-02-04T04:29:06.008Z,26.20
2018-02-04T04:31:32.010Z,25.15
2018-02-04T04:33:58.704Z,25.35
2018-02-04T04:36:24.726Z,26.80
2018-02-04T04:38:50.910Z,24.17
2018-02-04T04:41:16.880Z,22.83
2018-02-04T04:43:42.888Z,24.40
2018-02-04T04:46:08.874Z,26.08
2018-02-04T04:48:34.846Z,24.83
2018-02-04T04:51:00.880Z,22.97
2018-02-04T04:53:26.870Z,25.15
2018-02-04T04:55:53.087Z,25.27
2018-02-04T04:58:19.057Z,23.75
2018-02-04T05:00:45.051Z,22.63
2018-02-04T05:03:11.151Z,24.60
2018-02-04T05:05:37.142Z,27.52
2018-02-04T05:08:03.087Z,26.77
2018-02-04T05:10:29.082Z,21.63
2018-02-04T05:12:55.071Z,28.80
2018-02-04T05:15:21.116Z,23.20
2018-02-04T05:17:47.120Z,29.85
2018-02-04T05:20:13.067Z,26.55
2018-02-04T05:22:39.138Z,28.00
2018-02-04T05:25:05.556Z,24.73
2018-02-04T05:27:31.524Z,32.75
2018-02-04T05:29:57.551Z,25.33
2018-02-04T05:32:23.516Z,25.58
2018-02-04T05:34:49.550Z,22.93
2018-02-04T05:37:15.522Z,28.58
2018-02-04T05:39:42.212Z,26.90
2018-02-04T05:42:08.237Z,33.35
2018-02-04T05:44:34.239Z,27.13
2018-02-04T05:47:01.007Z,33.00
2018-02-04T05:49:27.034Z,30.00
2018-02-04T05:51:53.022Z,29.33
2018-02-04T05:54:19.798Z,30.30
2018-02-04T05:56:45.799Z,26.62
2018-02-04T05:59:11.821Z,33.22
2018-02-04T06:01:38.110Z,30.20
2018-02-04T06:04:04.054Z,32.45
2018-02-04T06:06:30.810Z,30.57
2018-02-04T06:08:56.780Z,30.17
2018-02-04T06:11:22.711Z,33.93
2018-02-04T06:13:48.711Z,28.57
2018-02-04T06:16:14.714Z,32.17
2018-02-04T06:18:40.651Z,31.27
2018-02-04T06:21:06.641Z,30.50
2018-02-04T06:23:32.660Z,28.60
2018-02-04T06:25:58.698Z,32.10
2018-02-04T06:28:24.676Z,38.42
2018-02-04T06:30:50.682Z,35.93
2018-02-04T06:33:16.675Z,34.60
2018-02-04T06:35:42.650Z,37.80
2018-02-04T06:38:08.595Z,34.20
2018-02-04T06:40:34.542Z,33.20
2018-02-04T06:43:00.475Z,32.80
2018-02-04T06:45:26.453Z,28.57
2018-02-04T06:47:52.495Z,26.37
2018-02-04T06:50:18.463Z,30.55
2018-02-04T06:52:44.397Z,28.83
2018-02-04T06:55:10.360Z,30.43
2018-02-04T06:57:36.388Z,27.40
2018-02-04T07:00:02.484Z,26.55
2018-02-04T07:02:28.431Z,27.70
2018-02-04T07:04:54.383Z,26.50
2018-02-04T07:07:20.383Z,28.17
2018-02-04T07:09:47.248Z,26.45
2018-02-04T07:12:13.275Z,25.48
2018-02-04T07:14:39.278Z,22.58
2018-02-04T07:17:05.248Z,22.35
2018-02-04T07:19:31.262Z,21.60
2018-02-04T07:21:58.975Z,23.45
2018-02-04T07:24:25.024Z,19.15
2018-02-04T07:26:51.843Z,19.83
2018-02-04T07:29:17.774Z,18.92
2018-02-04T07:31:43.734Z,20.90
2018-02-04T07:34:10.467Z,20.20
2018-02-04T07:36:36.459Z,24.92
2018-02-04T07:39:02.456Z,22.53
2018-02-04T07:41:28.460Z,23.48
2018-02-04T07:43:54.452Z,19.67
2018-02-04T07:46:20.523Z,19.23
2018-02-04T07:48:46.595Z,18.65
2018-02-04T07:51:12.701Z,16.80
2018-02-04T07:53:38.676Z,20.12
2018-02-04T07:56:04.699Z,17.13
2018-02-04T07:58:30.696Z,20.80
2018-02-04T08:00:56.766Z,17.60
2018-02-04T08:03:22.778Z,23.27
2018-02-04T08:05:48.861Z,20.33
2018-02-04T08:08:14.959Z,18.15
2018-02-04T08:10:41.097Z,15.95
2018-02-04T08:13:07.092Z,20.55
2018-02-04T08:15:34.806Z,19.98
2018-02-04T08:18:02.347Z,19.20
2018-02-04T08:20:28.358Z,21.37
2018-02-04T08:22:54.387Z,17.95
2018-02-04T08:25:21.153Z,22.48
2018-02-04T08:27:47.170Z,25.92
2018-02-04T08:30:16.946Z,20.98
2018-02-04T08:32:42.964Z,19.65
2018-02-04T08:35:08.980Z,19.00
2018-02-04T08:37:35.012Z,21.42
2018-02-04T08:40:01.034Z,19.33
2018-02-04T08:42:27.038Z,23.52
2018-02-04T08:44:54.837Z,21.62
2018-02-04T08:47:20.876Z,16.12
2018-02-04T08:49:47.180Z,21.45
2018-02-04T08:52:14.060Z,16.05
2018-02-04T08:54:40.072Z,18.30
2018-02-04T08:57:06.996Z,20.10
2018-02-04T08:59:33.032Z,15.05
2018-02-04T09:01:59.757Z,17.10
2018-02-04T09:04:25.803Z,18.42
2018-02-04T09:06:51.816Z,18.05
2018-02-04T09:09:18.742Z,19.17
2018-02-04T09:11:44.794Z,20.73
2018-02-04T09:14:11.487Z,23.50
2018-02-04T09:16:37.555Z,19.60
2018-02-04T09:19:03.555Z,20.17
2018-02-04T09:21:29.499Z,21.07
2018-02-04T09:23:55.475Z,23.63
2018-02-04T09:26:21.465Z,19.90
2018-02-04T09:28:47.511Z,22.65
2018-02-04T09:31:13.490Z,25.80
2018-02-04T09:33:40.522Z,17.43
2018-02-04T09:36:07.256Z,22.80
2018-02-04T09:38:33.242Z,20.85
2018-02-04T09:40:59.318Z,20.00
2018-02-04T09:43:25.572Z,21.77
2018-02-04T09:45:52.651Z,22.33
2018-02-04T09:48:19.300Z,24.27
2018-02-04T09:50:45.363Z,20.92
2018-02-04T09:53:11.432Z,20.55
2018-02-04T09:55:37.602Z,24.08
2018-02-04T09:58:04.465Z,21.40
2018-02-04T10:00:31.189Z,20.83
2018-02-04T10:02:57.270Z,18.00
2018-02-04T10:05:23.441Z,17.92
2018-02-04T10:07:51.085Z,19.58
2018-02-04T10:10:18.954Z,17.90
2018-02-04T10:12:45.620Z,18.50
2018-02-04T10:15:11.851Z,18.60
2018-02-04T10:20:10.490Z,16.33
2018-02-04T10:22:36.802Z,17.87
2018-02-04T10:25:02.951Z,17.20
2018-02-04T10:27:29.131Z,19.50
2018-02-04T10:29:55.205Z,17.33
2018-02-04T10:32:22.509Z,20.73
2018-02-04T10:34:49.866Z,18.15
2018-02-04T10:37:18.552Z,15.05
2018-02-04T10:39:44.590Z,20.20
2018-02-04T10:42:11.309Z,18.60
2018-02-04T10:44:38.201Z,18.80
2018-02-04T10:47:06.080Z,18.92
2018-02-04T10:49:33.191Z,16.48
2018-02-04T10:51:59.233Z,18.90
2018-02-04T10:54:26.453Z,15.57
2018-02-04T10:56:53.440Z,16.77
2018-02-04T10:59:21.489Z,14.57
2018-02-04T11:01:52.858Z,16.37
2018-02-04T11:04:25.647Z,16.55
2018-02-04T11:06:51.661Z,17.12
2018-02-04T11:09:17.920Z,17.17
2018-02-04T11:11:47.718Z,17.55
2018-02-04T11:14:14.460Z,19.17
2018-02-04T11:16:42.463Z,19.55
2018-02-04T11:19:10.541Z,18.90
2018-02-04T11:21:37.465Z,17.52
2018-02-04T11:24:04.153Z,17.20
2018-02-04T11:26:30.447Z,16.05
2018-02-04T11:28:56.410Z,15.25
2018-02-04T11:31:22.447Z,21.13
2018-02-04T11:33:48.683Z,18.60
2018-02-04T11:36:16.291Z,20.33
2018-02-04T11:39:05.739Z,22.10
2018-02-04T11:41:35.811Z,21.35
2018-02-04T11:44:05.852Z,20.27
2018-02-04T11:46:34.770Z,17.58
2018-02-04T11:49:00.954Z,20.45
2018-02-04T11:51:26.963Z,17.48
2018-02-04T11:53:53.532Z,16.80
2018-02-04T11:56:20.486Z,22.27
2018-02-04T11:58:46.574Z,19.80
2018-02-04T12:01:13.477Z,14.48
2018-02-04T12:03:41.936Z,18.08
2018-02-04T12:06:10.179Z,14.55
2018-02-04T12:08:36.902Z,15.40
2018-02-04T12:11:04.863Z,17.90
2018-02-04T12:13:31.555Z,11.52
2018-02-04T12:15:57.659Z,12.65
2018-02-04T12:18:23.672Z,11.07
2018-02-04T12:20:53.640Z,12.93
2018-02-04T12:23:21.470Z,13.73
2018-02-04T12:25:48.698Z,13.32
2018-02-04T12:28:15.838Z,17.62
2018-02-04T12:30:42.399Z,17.25
2018-02-04T12:33:10.340Z,15.77
2018-02-04T12:35:37.416Z,14.07
2018-02-04T12:38:03.867Z,17.92
2018-02-04T12:40:29.989Z,14.82
2018-02-04T12:42:58.239Z,15.15
2018-02-04T12:45:24.490Z,12.37
2018-02-04T12:47:51.036Z,13.25
2018-02-04T12:50:17.558Z,18.37
2018-02-04T12:52:45.137Z,17.92
2018-02-04T12:55:11.196Z,20.80
2018-02-04T12:57:37.219Z,19.73
2018-02-04T13:00:03.461Z,17.75
2018-02-04T13:02:29.678Z,21.40
2018-02-04T13:04:56.861Z,18.42
2018-02-04T13:10:02.397Z,18.25
2018-02-04T13:12:29.194Z,20.15
2018-02-04T13:14:58.645Z,17.67
2018-02-04T13:17:25.975Z,20.73
2018-02-04T13:19:53.251Z,16.77
2018-02-04T13:22:19.484Z,16.87
2018-02-04T13:24:45.553Z,19.17
2018-02-04T13:27:11.892Z,17.75
2018-02-04T13:29:39.623Z,17.42
2018-02-04T13:32:05.723Z,20.08
2018-02-04T13:34:32.481Z,17.70
2018-02-04T13:36:58.591Z,20.77
2018-02-04T13:39:24.940Z,20.92
2018-02-04T13:41:51.028Z,21.27
2018-02-04T13:44:17.771Z,20.17
2018-02-04T13:46:44.630Z,20.37
2018-02-04T13:49:10.799Z,17.27
2018-02-04T13:51:36.802Z,19.37
2018-02-04T13:54:03.127Z,22.13
2018-02-04T13:56:29.795Z,17.35
2018-02-04T13:58:58.209Z,16.70
2018-02-04T14:01:25.034Z,18.33
2018-02-04T14:03:51.034Z,20.83
2018-02-04T14:06:17.006Z,18.83
2018-02-04T14:08:43.405Z,19.23
2018-02-04T14:11:09.773Z,18.67
2018-02-04T14:13:35.825Z,19.60
2018-02-04T14:16:02.108Z,17.90
2018-02-04T14:18:28.736Z,16.85
2018-02-04T14:20:54.691Z,18.67
2018-02-04T14:23:21.622Z,18.60
2018-02-04T14:25:47.616Z,22.35
2018-02-04T14:28:15.899Z,18.48
2018-02-04T14:30:42.780Z,16.37
2018-02-04T14:33:09.510Z,17.58
2018-02-04T14:35:36.378Z,17.37
2018-02-04T14:38:02.331Z,18.83
2018-02-04T14:40:28.310Z,19.43
2018-02-04T14:42:55.054Z,19.90
2018-02-04T14:45:21.043Z,17.37
2018-02-04T14:47:47.788Z,20.52
2018-02-04T14:50:14.602Z,18.35
2018-02-04T14:52:40.791Z,20.40
2018-02-04T14:55:06.734Z,21.75
2018-02-04T14:57:32.758Z,19.43
2018-02-04T14:59:58.750Z,16.27
2018-02-04T15:02:24.731Z,15.70
2018-02-04T15:04:51.412Z,19.20
2018-02-04T15:07:18.186Z,19.00
2018-02-04T15:09:44.295Z,19.95
2018-02-04T15:12:10.453Z,20.55
2018-02-04T15:14:36.508Z,22.95
2018-02-04T15:17:03.264Z,18.83
2018-02-04T15:19:29.498Z,17.83
2018-02-04T15:21:55.463Z,18.52
2018-02-04T15:24:21.513Z,24.93
2018-02-04T15:26:48.314Z,20.45
2018-02-04T15:29:14.323Z,17.27
2018-02-04T15:31:40.318Z,22.65
2018-02-04T15:34:06.294Z,20.53
2018-02-04T15:36:32.816Z,21.60
2018-02-04T15:38:58.795Z,21.12
2018-02-04T15:41:24.767Z,19.87
2018-02-04T15:43:50.795Z,25.03
2018-02-04T15:46:16.797Z,21.37
2018-02-04T15:48:42.974Z,18.60
2018-02-04T15:51:09.677Z,21.87
2018-02-04T15:53:35.725Z,21.73
2018-02-04T15:56:01.852Z,20.23
2018-02-04T15:58:29.743Z,19.08
2018-02-04T16:00:59.390Z,23.85
2018-02-04T16:03:25.406Z,22.08
2018-02-04T16:05:51.368Z,21.40
2018-02-04T16:08:17.727Z,22.43
2018-02-04T16:10:43.657Z,21.98
2018-02-04T16:13:09.710Z,19.40
2018-02-04T16:15:35.704Z,21.02
2018-02-04T16:18:01.927Z,23.33
2018-02-04T16:20:28.678Z,19.95
2018-02-04T16:22:54.667Z,22.30
2018-02-04T16:25:20.762Z,21.17
2018-02-04T16:27:46.840Z,18.80
2018-02-04T16:30:12.969Z,22.48
2018-02-04T16:32:39.331Z,30.30
2018-02-04T16:35:06.231Z,25.62
2018-02-04T16:37:32.179Z,32.85
2018-02-04T16:39:58.937Z,26.43
2018-02-04T16:42:26.236Z,24.48
2018-02-04T16:44:54.969Z,26.75
2018-02-04T16:47:25.722Z,21.80
2018-02-04T16:49:54.586Z,23.30
2018-02-04T16:52:26.756Z,22.45
2018-02-04T16:54:56.874Z,21.15
2018-02-04T16:57:25.279Z,23.02
2018-02-04T16:59:53.583Z,24.67
2018-02-04T17:02:23.080Z,20.60
2018-02-04T17:04:49.274Z,27.20
2018-02-04T17:07:16.258Z,22.73
2018-02-04T17:09:43.753Z,21.25
2018-02-04T17:12:09.807Z,21.27
2018-02-04T17:14:35.796Z,25.48
2018-02-04T17:17:01.806Z,19.52
2018-02-04T17:19:28.206Z,20.40
2018-02-04T17:21:59.068Z,22.40
2018-02-04T17:24:25.047Z,19.65
2018-02-04T17:26:52.088Z,17.27
2018-02-04T17:29:18.285Z,19.67
2018-02-04T17:31:44.234Z,20.37
2018-02-04T17:34:11.163Z,19.50
2018-02-04T17:36:37.102Z,19.55
2018-02-04T17:39:03.252Z,19.73
2018-02-04T17:41:29.269Z,20.92
2018-02-04T17:43:55.618Z,20.45
2018-02-04T17:46:21.867Z,20.25
2018-02-04T17:48:50.121Z,21.77
2018-02-04T17:51:16.907Z,21.23
2018-02-04T17:53:43.090Z,20.58
2018-02-04T17:56:09.821Z,20.90
2018-02-04T17:58:35.931Z,23.10
2018-02-04T18:01:04.144Z,22.37
2018-02-04T18:03:30.448Z,21.58
2018-02-04T18:05:56.400Z,21.58
2018-02-04T18:08:22.887Z,21.40
2018-02-04T18:10:49.641Z,20.05
2018-02-04T18:13:18.979Z,18.70
2018-02-04T18:15:45.996Z,15.07
2018-02-04T18:18:13.318Z,20.80
2018-02-04T18:20:40.190Z,17.95
2018-02-04T18:23:07.331Z,18.62
2018-02-04T18:25:34.735Z,19.95
2018-02-04T18:28:00.716Z,35.80
2018-02-04T18:30:28.813Z,16.50
2018-02-04T18:32:54.899Z,18.02
2018-02-04T18:35:24.227Z,17.70
2018-02-04T18:37:50.221Z,18.62
2018-02-04T18:40:16.932Z,14.77
2018-02-04T18:42:43.478Z,14.20
2018-02-04T18:45:09.642Z,13.68
2018-02-04T18:47:35.962Z,14.32
2018-02-04T18:50:03.262Z,16.12
2018-02-04T18:52:29.261Z,16.35
2018-02-04T18:54:56.863Z,16.50
2018-02-04T18:57:24.019Z,13.93
2018-02-04T18:59:50.890Z,14.15
2018-02-04T19:02:16.863Z,15.63
2018-02-04T19:04:42.835Z,16.20
2018-02-04T19:07:08.898Z,14.53
2018-02-04T19:09:36.794Z,14.85
2018-02-04T19:12:03.992Z,15.27
2018-02-04T19:14:30.742Z,19.48
2018-02-04T19:16:57.555Z,18.33
2018-02-04T19:19:23.705Z,16.80
2018-02-04T19:21:51.204Z,13.60
2018-02-04T19:24:18.552Z,16.23
2018-02-04T19:26:44.810Z,14.15
2018-02-04T19:29:11.642Z,12.20
2018-02-04T19:31:39.246Z,16.85
2018-02-04T19:34:06.115Z,13.43
2018-02-04T19:36:32.098Z,13.25
2018-02-04T19:38:58.944Z,12.20
2018-02-04T19:41:28.335Z,16.15
2018-02-04T19:43:55.194Z,15.50
2018-02-04T19:46:21.223Z,15.50
2018-02-04T19:48:47.215Z,15.05
2018-02-04T19:51:13.281Z,14.73
2018-02-04T19:53:39.252Z,16.87
2018-02-04T19:56:06.050Z,14.50
2018-02-04T19:58:32.044Z,13.43
2018-02-04T20:00:58.063Z,19.37
2018-02-04T20:03:23.996Z,15.73
2018-02-04T20:05:50.703Z,14.07
2018-02-04T20:08:16.855Z,15.95
2018-02-04T20:10:42.831Z,16.20
2018-02-04T20:13:09.576Z,15.67
2018-02-04T20:15:36.360Z,14.32
2018-02-04T20:18:02.513Z,20.92
2018-02-04T20:20:30.377Z,22.00
2018-02-04T20:22:57.046Z,14.80
2018-02-04T20:25:23.738Z,17.92
2018-02-04T20:27:49.714Z,34.17
2018-02-04T20:30:15.710Z,18.37
2018-02-04T20:32:54.564Z,15.55
2018-02-04T20:35:21.264Z,15.20
2018-02-04T20:37:47.223Z,13.45
2018-02-04T20:40:13.237Z,17.00
2018-02-04T20:42:39.346Z,17.05
2018-02-04T20:45:05.480Z,16.20
2018-02-04T20:47:33.164Z,16.80
2018-02-04T20:49:59.115Z,15.40
2018-02-04T20:52:25.067Z,12.10
2018-02-04T20:54:51.943Z,14.00
2018-02-04T20:57:17.965Z,18.55
2018-02-04T20:59:44.944Z,14.48
2018-02-04T21:02:10.955Z,17.30
2018-02-04T21:04:36.951Z,13.75
2018-02-04T21:07:02.957Z,14.87
2018-02-04T21:09:28.926Z,18.65
2018-02-04T21:11:55.753Z,18.67
2018-02-04T21:14:21.739Z,16.15
2018-02-04T21:16:48.481Z,18.30
2018-02-04T21:19:15.335Z,17.17
2018-02-04T21:21:41.419Z,15.65
2018-02-04T21:24:07.554Z,38.67
2018-02-04T21:26:34.358Z,25.17
2018-02-04T21:29:00.311Z,16.87
2018-02-04T21:31:26.254Z,21.43
2018-02-04T21:33:53.065Z,62.30
2018-02-04T21:36:19.705Z,18.23
2018-02-04T21:38:45.734Z,15.15
2018-02-04T21:41:13.207Z,15.93
2018-02-04T21:43:39.214Z,21.12
2018-02-04T21:46:05.324Z,18.73
2018-02-04T21:48:32.404Z,18.70
2018-02-04T21:50:59.405Z,14.32
2018-02-04T21:53:25.350Z,11.90
2018-02-04T21:55:51.315Z,16.30
2018-02-04T21:58:17.287Z,17.20
2018-02-04T22:00:43.290Z,17.30
2018-02-04T22:03:09.500Z,17.35
2018-02-04T22:05:35.494Z,15.30
2018-02-04T22:08:01.820Z,16.42
2018-02-04T22:10:28.541Z,18.17
2018-02-04T22:12:54.557Z,14.27
2018-02-04T22:15:20.487Z,16.45
2018-02-04T22:17:46.421Z,18.53
2018-02-04T22:20:12.387Z,15.10
2018-02-04T22:22:38.405Z,18.37
2018-02-04T22:25:04.363Z,14.85
2018-02-04T22:27:30.305Z,18.07
2018-02-04T22:29:56.294Z,15.40
2018-02-04T22:32:22.323Z,16.13
2018-02-04T22:34:49.973Z,15.43
2018-02-04T22:37:16.004Z,16.15
2018-02-04T22:39:42.078Z,16.33
2018-02-04T22:42:08.229Z,17.37
2018-02-04T22:44:55.431Z,16.27
2018-02-04T22:47:21.674Z,13.98
2018-02-04T22:49:47.656Z,18.45
2018-02-04T22:52:13.602Z,15.07
2018-02-04T22:54:39.482Z,18.30
2018-02-04T22:57:05.420Z,16.50
2018-02-04T22:59:32.090Z,14.10
2018-02-04T23:01:58.085Z,13.62
2018-02-04T23:04:24.130Z,21.12
2018-02-04T23:06:50.050Z,16.70
2018-02-04T23:09:16.118Z,20.03
2018-02-04T23:11:42.079Z,16.50
2018-02-04T23:14:08.051Z,18.23
2018-02-04T23:16:33.994Z,15.97
2018-02-04T23:18:59.936Z,18.67
2018-02-04T23:21:26.730Z,17.00
2018-02-04T23:23:52.664Z,18.45
2018-02-04T23:26:19.400Z,16.20
2018-02-04T23:28:45.360Z,17.98
2018-02-04T23:31:12.994Z,17.17
2018-02-04T23:33:38.972Z,17.42
2018-02-04T23:36:04.995Z,15.00
2018-02-04T23:38:31.785Z,19.00
2018-02-04T23:40:57.691Z,19.10
2018-02-04T23:43:23.679Z,21.20
2018-02-04T23:45:49.599Z,16.40
2018-02-04T23:48:16.252Z,17.10
2018-02-04T23:50:42.147Z,19.98
2018-02-04T23:53:08.056Z,16.80
2018-02-04T23:55:33.972Z,18.83
2018-02-04T23:57:59.902Z,18.00
